createdAt,value
2022-10-19T00:02:14.610Z,1002
2022-10-19T00:07:14.586Z,1002
2022-10-19T00:13:04.315Z,1002
2022-10-19T00:18:14.592Z,1002
2022-10-19T00:24:04.333Z,1002
2022-10-19T00:29:14.675Z,1002
2022-10-19T00:34:14.583Z,1002
2022-10-19T00:39:14.587Z,1002
2022-10-19T00:45:04.278Z,1002
2022-10-19T00:50:04.403Z,1002
2022-10-19T00:55:14.587Z,1002
2022-10-19T01:01:04.442Z,1002
2022-10-19T01:06:04.314Z,1002
2022-10-19T01:11:14.438Z,1002
2022-10-19T01:16:14.560Z,1002
2022-10-19T01:21:14.599Z,1002
2022-10-19T01:27:04.370Z,1002
2022-10-19T01:32:14.585Z,1002
2022-10-19T01:38:04.301Z,1002
2022-10-19T01:43:04.309Z,1002
2022-10-19T01:48:04.285Z,1002
2022-10-19T01:53:14.631Z,1002
2022-10-19T01:59:04.317Z,1002
2022-10-19T02:04:14.621Z,1002
2022-10-19T02:10:04.121Z,1002
2022-10-19T02:15:14.605Z,1002
2022-10-19T02:21:04.074Z,1002
2022-10-19T02:26:04.108Z,1002
2022-10-19T02:31:04.147Z,1002
2022-10-19T02:36:14.358Z,1002
2022-10-19T02:41:14.409Z,1002
2022-10-19T02:46:14.869Z,1002
2022-10-19T02:52:04.101Z,1002
2022-10-19T02:57:14.356Z,1002
2022-10-19T03:02:14.369Z,1002
2022-10-19T03:07:14.406Z,1002
2022-10-19T03:13:04.125Z,1002
2022-10-19T03:18:14.370Z,1002
2022-10-19T03:23:14.382Z,1001
2022-10-19T03:29:04.245Z,1001
2022-10-19T03:34:04.231Z,1001
2022-10-19T03:39:04.289Z,1001
2022-10-19T03:44:14.420Z,1001
2022-10-19T03:49:24.102Z,1001
2022-10-19T03:55:04.302Z,1001
2022-10-19T04:00:04.318Z,1002
2022-10-19T04:05:14.716Z,1002
2022-10-19T04:10:14.964Z,1002
2022-10-19T04:16:04.324Z,1002
2022-10-19T04:21:14.817Z,1001
2022-10-19T04:27:04.301Z,1002
2022-10-19T04:32:14.621Z,1002
2022-10-19T04:38:04.257Z,1002
2022-10-19T04:43:04.316Z,1002
2022-10-19T04:48:15.268Z,1002
2022-10-19T04:53:14.628Z,1002
2022-10-19T04:59:04.317Z,1002
2022-10-19T05:04:14.605Z,1001
2022-10-19T05:09:24.679Z,1001
2022-10-19T05:15:04.287Z,1001
2022-10-19T05:20:04.345Z,1001
2022-10-19T05:25:14.570Z,1001
2022-10-19T05:31:04.291Z,1001
2022-10-19T05:36:14.600Z,1001
2022-10-19T05:41:14.592Z,1001
2022-10-19T05:47:04.283Z,1001
2022-10-19T05:52:14.572Z,1001
2022-10-19T05:57:14.632Z,1001
2022-10-19T06:03:04.465Z,1001
2022-10-19T06:08:14.610Z,1001
2022-10-19T06:14:04.301Z,1001
2022-10-19T06:19:14.607Z,1001
2022-10-19T06:25:04.368Z,1001
2022-10-19T06:30:14.442Z,1001
2022-10-19T06:35:14.558Z,1001
2022-10-19T06:40:14.668Z,1001
2022-10-19T06:46:04.621Z,1001
2022-10-19T06:51:14.350Z,1001
2022-10-19T06:56:14.592Z,1002
2022-10-19T07:01:14.727Z,1002
2022-10-19T07:07:04.299Z,1002
2022-10-19T07:12:04.351Z,1002
2022-10-19T07:17:14.595Z,1002
2022-10-19T07:23:04.071Z,1001
2022-10-19T07:28:04.297Z,1002
2022-10-19T07:33:14.407Z,1001
2022-10-19T07:38:14.563Z,1002
2022-10-19T07:43:14.604Z,1002
2022-10-19T07:49:04.281Z,1002
2022-10-19T07:54:04.286Z,1002
2022-10-19T07:59:04.588Z,1002
2022-10-19T08:04:55.462Z,1002
2022-10-19T08:09:33.496Z,1002
2022-10-19T08:15:04.302Z,1002
2022-10-19T08:20:04.280Z,1002
2022-10-19T08:25:16.453Z,1002
2022-10-19T08:31:04.448Z,1002
2022-10-19T08:36:14.320Z,1002
2022-10-19T08:41:14.345Z,1001
2022-10-19T08:46:14.368Z,1001
2022-10-19T08:52:04.098Z,1001
2022-10-19T08:57:04.250Z,1001
2022-10-19T09:02:14.422Z,1001
2022-10-19T09:08:04.101Z,1001
2022-10-19T09:13:04.243Z,1001
2022-10-19T09:18:14.393Z,1001
2022-10-19T09:23:14.388Z,1001
2022-10-19T09:29:04.079Z,1001
2022-10-19T09:34:04.197Z,1001
2022-10-19T09:39:14.290Z,1001
2022-10-19T09:44:14.358Z,1001
2022-10-19T09:50:04.405Z,1001
2022-10-19T09:55:14.403Z,1001
2022-10-19T10:00:14.527Z,1001
2022-10-19T10:05:14.645Z,1001
2022-10-19T10:11:04.256Z,1001
2022-10-19T10:16:04.282Z,1001
2022-10-19T10:21:14.556Z,1001
2022-10-19T10:26:14.588Z,1001
2022-10-19T10:32:04.392Z,1001
2022-10-19T10:37:14.465Z,1001
2022-10-19T10:43:14.521Z,1001
2022-10-19T10:49:04.094Z,1001
2022-10-19T10:54:04.114Z,1001
2022-10-19T10:59:14.561Z,1000
2022-10-19T11:04:14.576Z,1000
2022-10-19T11:09:24.713Z,1000
2022-10-19T11:15:04.123Z,1000
2022-10-19T11:20:04.343Z,1000
2022-10-19T11:25:14.723Z,1000
2022-10-19T11:31:04.287Z,1000
2022-10-19T11:36:14.579Z,1000
2022-10-19T11:42:04.319Z,1000
2022-10-19T11:47:14.586Z,1000
2022-10-19T11:53:04.269Z,1000
2022-10-19T11:58:14.584Z,1000
2022-10-19T12:03:14.575Z,999
2022-10-19T12:08:15.285Z,999
2022-10-19T12:14:04.341Z,999
2022-10-19T12:19:04.372Z,999
2022-10-19T12:24:14.592Z,999
2022-10-19T12:30:04.308Z,999
2022-10-19T12:35:14.477Z,999
2022-10-19T12:41:04.297Z,999
2022-10-19T12:46:04.354Z,999
2022-10-19T12:51:04.344Z,999
2022-10-19T12:56:14.607Z,999
2022-10-19T13:02:04.319Z,999
2022-10-19T13:07:14.563Z,999
2022-10-19T13:13:04.321Z,999
2022-10-19T13:18:04.307Z,998
2022-10-19T13:23:04.306Z,998
2022-10-19T13:28:14.579Z,998
2022-10-19T13:34:04.319Z,998
2022-10-19T13:39:04.306Z,998
2022-10-19T13:44:14.426Z,998
2022-10-19T13:50:04.402Z,998
2022-10-19T13:55:14.643Z,998
2022-10-19T14:01:04.306Z,998
2022-10-19T14:06:14.366Z,998
2022-10-19T14:12:04.300Z,998
2022-10-19T14:17:14.652Z,998
2022-10-19T14:22:14.637Z,998
2022-10-19T14:28:04.258Z,998
2022-10-19T14:33:04.319Z,998
2022-10-19T14:38:14.363Z,998
2022-10-19T14:43:14.623Z,998
2022-10-19T14:49:04.126Z,998
2022-10-19T14:54:04.470Z,998
2022-10-19T14:59:14.754Z,998
2022-10-19T15:05:04.080Z,998
2022-10-19T15:10:04.153Z,997
2022-10-19T15:15:14.405Z,997
2022-10-19T15:21:12.340Z,997
2022-10-19T15:26:07.232Z,997
2022-10-19T15:31:14.380Z,997
2022-10-19T15:36:14.891Z,997
2022-10-19T15:42:04.178Z,997
2022-10-19T15:47:04.161Z,997
2022-10-19T15:52:14.368Z,997
2022-10-19T15:57:14.423Z,997
2022-10-19T16:03:04.191Z,997
2022-10-19T16:08:04.954Z,997
2022-10-19T16:13:04.370Z,997
2022-10-19T16:18:04.484Z,997
2022-10-19T16:23:14.694Z,997
2022-10-19T16:29:04.180Z,997
2022-10-19T16:34:04.301Z,997
2022-10-19T16:39:04.393Z,997
2022-10-19T16:44:14.625Z,997
2022-10-19T16:49:15.936Z,997
2022-10-19T16:55:04.477Z,997
2022-10-19T17:00:14.373Z,997
2022-10-19T17:05:14.383Z,997
2022-10-19T17:11:04.328Z,997
2022-10-19T17:16:04.595Z,997
2022-10-19T17:21:14.559Z,997
2022-10-19T17:26:14.637Z,997
2022-10-19T17:32:04.330Z,997
2022-10-19T17:37:14.619Z,997
2022-10-19T17:43:04.317Z,997
2022-10-19T17:48:14.614Z,997
2022-10-19T17:54:04.279Z,997
2022-10-19T17:59:14.592Z,997
2022-10-19T18:04:14.658Z,997
2022-10-19T18:10:04.401Z,997
2022-10-19T18:15:04.401Z,997
2022-10-19T18:20:14.464Z,997
2022-10-19T18:25:18.775Z,997
2022-10-19T18:31:04.369Z,997
2022-10-19T18:36:14.585Z,997
2022-10-19T18:41:14.668Z,997
2022-10-19T18:47:04.331Z,996
2022-10-19T18:52:14.388Z,996
2022-10-19T18:57:14.639Z,996
2022-10-19T19:03:04.289Z,996
2022-10-19T19:08:04.326Z,996
2022-10-19T19:13:14.618Z,996
2022-10-19T19:19:04.286Z,996
2022-10-19T19:24:04.367Z,996
2022-10-19T19:29:04.390Z,996
2022-10-19T19:34:14.407Z,996
2022-10-19T19:39:14.594Z,996
2022-10-19T19:45:04.295Z,996
2022-10-19T19:50:04.407Z,996
2022-10-19T19:55:04.422Z,996
2022-10-19T20:00:04.603Z,996
2022-10-19T20:05:14.622Z,996
2022-10-19T20:11:04.413Z,996
2022-10-19T20:16:14.558Z,996
2022-10-19T20:21:14.574Z,996
2022-10-19T20:26:14.616Z,996
2022-10-19T20:32:04.269Z,996
2022-10-19T20:37:14.582Z,996
2022-10-19T20:42:14.639Z,995
2022-10-19T20:48:04.219Z,995
2022-10-19T20:53:14.583Z,996
2022-10-19T20:58:14.634Z,995
2022-10-19T21:04:04.063Z,995
2022-10-19T21:09:04.254Z,995
2022-10-19T21:14:04.118Z,995
2022-10-19T21:19:14.384Z,995
2022-10-19T21:25:04.484Z,995
2022-10-19T21:30:14.386Z,995
2022-10-19T21:35:14.386Z,995
2022-10-19T21:41:04.091Z,995
2022-10-19T21:46:14.450Z,995
2022-10-19T21:52:04.150Z,995
2022-10-19T21:57:04.341Z,995
2022-10-19T22:02:14.442Z,995
2022-10-19T22:08:04.123Z,995
2022-10-19T22:13:04.145Z,995
2022-10-19T22:18:04.255Z,995
2022-10-19T22:23:14.419Z,995
2022-10-19T22:28:14.409Z,995
2022-10-19T22:33:14.604Z,995
2022-10-19T22:39:04.103Z,995
2022-10-19T22:44:04.119Z,995
2022-10-19T22:49:14.582Z,995
2022-10-19T22:55:04.082Z,994
2022-10-19T23:00:14.599Z,994
2022-10-19T23:06:04.190Z,994
2022-10-19T23:11:04.207Z,994
2022-10-19T23:16:04.291Z,994
2022-10-19T23:21:14.594Z,994
2022-10-19T23:26:14.580Z,994
2022-10-19T23:31:14.603Z,994
2022-10-19T23:37:04.148Z,994
2022-10-19T23:42:04.317Z,994
2022-10-19T23:47:14.705Z,994
2022-10-19T23:53:04.278Z,994
2022-10-19T23:58:14.607Z,994
